aviador You're here:

KMWA Decoded Metar

MARION REGIONAL in IL, USA
Report Time2017-07-21 04:15:00
UTC Time2017-07-21 04:31:14
Flight Rules vfr VFR
Wind180° at 03 kt
W.Decomp.*RWY 20: 2.8 kt HW 1.1 kt LCW
RWY 11: 1.1 kt HW 2.8 kt RCW
W.Rank180° ranks 3
Current wind is below 180° avg. (8.0)
Visibility9999 m
Phenomena:N/A
Clouds:N/A
Expected CloudBase > 400 ft AGL from Temp-Dew spread
CeilingNone
Temp27°C (ISA +13)
Dew Point26°C (94% RH)
Heat Index31.2°C
QNH1016 hPa
Density Alt2,303 ft
Elevation472 ft
Report Wrong Elevation
Raw Report
KMWA 210415Z AUTO 18003KT 10SM CLR 27/26 A3000 RMK AO2=

Extra information for KMWA:More info

Metar Taf Metar & Taf Last 4 Metars F.Rules Stats Wind Profile Meteogram Temp Stats Airport Information Weather charts Add Link Nearby VenuesMetar ALERT Operation Metar Decoded Social comments

AIRNAV info for KMWA